createdAt,value
2018-06-15T00:00:01.337Z,94.40
2018-06-15T00:02:31.624Z,94.50
2018-06-15T00:05:00.015Z,94.30
2018-06-15T00:07:28.560Z,94.30
2018-06-15T00:09:57.895Z,94.40
2018-06-15T00:12:26.320Z,94.20
2018-06-15T00:14:54.958Z,94.20
2018-06-15T00:17:23.376Z,94.30
2018-06-15T00:19:52.021Z,94.30
2018-06-15T00:24:48.553Z,94.80
2018-06-15T00:27:17.102Z,94.50
2018-06-15T00:29:45.534Z,94.60
2018-06-15T00:32:13.926Z,94.70
2018-06-15T00:34:42.368Z,94.80
2018-06-15T00:37:10.768Z,94.70
2018-06-15T00:39:39.293Z,94.70
2018-06-15T00:42:07.795Z,94.90
2018-06-15T00:44:36.225Z,94.70
2018-06-15T00:47:04.972Z,94.80
2018-06-15T00:49:34.540Z,94.70
2018-06-15T00:52:03.056Z,94.90
2018-06-15T00:54:31.486Z,95.10
2018-06-15T00:57:11.238Z,95.40
2018-06-15T00:59:39.657Z,95.30
2018-06-15T01:02:08.233Z,95.40
2018-06-15T01:04:36.677Z,95.30
2018-06-15T01:07:05.258Z,95.30
2018-06-15T01:09:33.996Z,95.40
2018-06-15T01:12:02.397Z,95.60
2018-06-15T01:14:30.828Z,95.60
2018-06-15T01:16:59.386Z,95.70
2018-06-15T01:19:28.230Z,95.70
2018-06-15T01:21:57.236Z,95.80
2018-06-15T01:24:25.661Z,95.60
2018-06-15T01:26:54.643Z,95.60
2018-06-15T01:29:23.144Z,95.70
2018-06-15T01:31:51.863Z,95.60
2018-06-15T01:34:20.278Z,95.90
2018-06-15T01:36:48.687Z,96.30
2018-06-15T01:39:17.285Z,96.10
2018-06-15T01:41:45.682Z,96.00
2018-06-15T01:44:14.117Z,96.00
2018-06-15T01:46:42.569Z,95.90
2018-06-15T01:49:10.978Z,95.90
2018-06-15T01:51:39.431Z,95.90
2018-06-15T01:54:08.115Z,96.00
2018-06-15T01:56:36.521Z,96.20
2018-06-15T01:59:04.962Z,96.10
2018-06-15T02:01:33.410Z,96.10
2018-06-15T02:04:01.856Z,96.20
2018-06-15T02:06:30.359Z,96.20
2018-06-15T02:08:59.055Z,96.20
2018-06-15T02:11:28.927Z,96.20
2018-06-15T02:13:57.487Z,96.20
2018-06-15T02:16:26.019Z,96.50
2018-06-15T02:18:54.491Z,96.60
2018-06-15T02:21:22.924Z,96.50
2018-06-15T02:23:52.219Z,96.60
2018-06-15T02:26:20.656Z,96.60
2018-06-15T02:28:49.338Z,96.50
2018-06-15T02:31:17.917Z,97.00
2018-06-15T02:33:46.308Z,96.80
2018-06-15T02:36:15.095Z,96.80
2018-06-15T02:38:43.549Z,96.70
2018-06-15T02:41:11.925Z,96.80
2018-06-15T02:43:40.357Z,96.90
2018-06-15T02:46:08.775Z,96.80
2018-06-15T02:48:37.404Z,96.80
2018-06-15T02:51:05.832Z,96.70
2018-06-15T02:53:34.302Z,96.70
2018-06-15T02:56:02.792Z,96.70
2018-06-15T02:58:31.204Z,96.80
2018-06-15T03:00:59.614Z,96.80
2018-06-15T03:03:28.032Z,96.90
2018-06-15T03:05:56.493Z,97.00
2018-06-15T03:08:25.222Z,97.10
2018-06-15T03:10:53.681Z,97.00
2018-06-15T03:13:22.120Z,96.90
2018-06-15T03:15:50.585Z,97.10
2018-06-15T03:18:19.015Z,97.00
2018-06-15T03:20:47.459Z,97.20
2018-06-15T03:23:15.854Z,97.20
2018-06-15T03:25:44.579Z,97.20
2018-06-15T03:28:12.977Z,97.10
2018-06-15T03:30:41.501Z,97.20
2018-06-15T03:33:09.933Z,97.30
2018-06-15T03:35:38.395Z,97.30
2018-06-15T03:38:07.541Z,97.40
2018-06-15T03:40:36.037Z,97.40
2018-06-15T03:43:04.571Z,97.50
2018-06-15T03:45:33.001Z,97.40
2018-06-15T03:48:01.441Z,97.30
2018-06-15T03:50:29.888Z,97.20
2018-06-15T03:52:58.343Z,97.00
2018-06-15T03:55:26.790Z,97.00
2018-06-15T03:57:55.305Z,97.20
2018-06-15T04:00:24.317Z,97.10
2018-06-15T04:05:20.994Z,97.20
2018-06-15T04:07:50.677Z,97.20
2018-06-15T04:10:19.096Z,97.10
2018-06-15T04:12:47.561Z,97.20
2018-06-15T04:15:16.003Z,97.20
2018-06-15T04:17:44.497Z,97.20
2018-06-15T04:22:41.073Z,97.10
2018-06-15T04:25:09.535Z,96.90
2018-06-15T04:27:37.964Z,96.80
2018-06-15T04:30:06.445Z,96.70
2018-06-15T04:32:34.923Z,96.50
2018-06-15T04:35:03.402Z,96.50
2018-06-15T04:37:32.008Z,96.50
2018-06-15T04:40:00.412Z,96.50
2018-06-15T04:42:29.764Z,96.40
2018-06-15T04:44:58.223Z,96.50
2018-06-15T04:47:26.661Z,96.80
2018-06-15T04:49:55.057Z,97.20
2018-06-15T04:52:23.499Z,97.10
2018-06-15T04:54:51.929Z,96.60
2018-06-15T04:57:20.338Z,96.20
2018-06-15T04:59:48.768Z,96.00
2018-06-15T05:04:45.708Z,95.60
2018-06-15T05:09:42.487Z,95.80
2018-06-15T05:12:10.944Z,95.50
2018-06-15T05:14:39.370Z,95.10
2018-06-15T05:17:08.014Z,95.00
2018-06-15T05:19:36.439Z,94.30
2018-06-15T05:22:04.891Z,93.70
2018-06-15T05:24:33.508Z,92.80
2018-06-15T05:27:02.068Z,91.60
2018-06-15T05:29:30.536Z,90.20
2018-06-15T05:31:59.030Z,89.10
2018-06-15T05:34:27.503Z,88.40
2018-06-15T05:36:57.033Z,88.00
2018-06-15T05:39:25.488Z,87.50
2018-06-15T05:41:54.381Z,88.10
2018-06-15T05:44:22.866Z,89.30
2018-06-15T05:46:51.288Z,89.00
2018-06-15T05:51:47.853Z,88.60
2018-06-15T05:54:16.277Z,86.70
2018-06-15T05:56:44.756Z,85.10
2018-06-15T05:59:13.252Z,82.10
2018-06-15T06:01:42.741Z,81.00
2018-06-15T06:04:11.268Z,80.50
2018-06-15T06:06:39.672Z,79.40
2018-06-15T06:09:09.534Z,77.50
2018-06-15T06:11:38.054Z,76.70
2018-06-15T06:14:06.489Z,75.50
2018-06-15T06:16:35.633Z,75.30
2018-06-15T06:19:04.513Z,75.40
2018-06-15T06:21:32.962Z,76.10
2018-06-15T06:24:01.434Z,76.30
2018-06-15T06:26:29.835Z,75.60
2018-06-15T06:28:58.622Z,74.40
2018-06-15T06:33:55.247Z,75.40
2018-06-15T06:36:23.785Z,72.70
2018-06-15T06:38:52.364Z,71.20
2018-06-15T06:41:21.224Z,70.70
2018-06-15T06:43:49.711Z,70.40
2018-06-15T06:46:18.145Z,69.60
2018-06-15T06:48:46.645Z,70.00
2018-06-15T06:51:15.092Z,70.00
2018-06-15T06:53:43.567Z,67.90
2018-06-15T06:56:11.955Z,62.30
2018-06-15T06:58:40.410Z,57.30
2018-06-15T07:01:08.878Z,54.70
2018-06-15T07:03:37.288Z,53.70
2018-06-15T07:06:05.806Z,52.80
2018-06-15T07:08:34.233Z,51.60
2018-06-15T07:11:02.648Z,51.90
2018-06-15T07:13:31.093Z,53.50
2018-06-15T07:15:59.498Z,53.10
2018-06-15T07:18:28.157Z,52.60
2018-06-15T07:20:56.748Z,51.30
2018-06-15T07:23:25.194Z,49.90
2018-06-15T07:25:53.673Z,48.70
2018-06-15T07:28:22.100Z,47.10
2018-06-15T07:30:50.517Z,45.50
2018-06-15T07:33:18.927Z,44.40
2018-06-15T07:35:47.429Z,44.90
2018-06-15T07:38:16.166Z,44.20
2018-06-15T07:40:44.589Z,43.90
2018-06-15T07:43:13.021Z,42.90
2018-06-15T07:45:41.474Z,41.90
2018-06-15T07:48:09.881Z,41.10
2018-06-15T07:50:38.444Z,40.40
2018-06-15T07:53:06.897Z,38.80
2018-06-15T07:55:35.405Z,39.00
2018-06-15T07:58:03.849Z,38.70
2018-06-15T08:00:32.327Z,39.50
2018-06-15T08:03:01.421Z,40.90
2018-06-15T08:05:29.857Z,40.60
2018-06-15T08:07:58.293Z,41.30
2018-06-15T08:10:26.784Z,42.00
2018-06-15T08:12:55.370Z,39.70
2018-06-15T08:15:23.820Z,39.40
2018-06-15T08:17:52.350Z,39.70
2018-06-15T08:20:20.810Z,39.10
2018-06-15T08:22:49.260Z,41.40
2018-06-15T08:25:17.711Z,41.80
2018-06-15T08:27:47.102Z,41.30
2018-06-15T08:30:15.745Z,41.40
2018-06-15T08:32:44.174Z,41.50
2018-06-15T08:35:12.680Z,41.50
2018-06-15T08:37:41.105Z,41.00
2018-06-15T08:40:09.537Z,40.10
2018-06-15T08:42:37.962Z,41.10
2018-06-15T08:45:06.390Z,40.60
2018-06-15T08:47:34.777Z,39.70
2018-06-15T08:50:03.386Z,39.00
2018-06-15T08:52:31.929Z,38.90
2018-06-15T08:55:00.494Z,37.90
2018-06-15T08:57:29.005Z,37.90
2018-06-15T08:59:57.406Z,38.10
2018-06-15T09:02:25.827Z,37.40
2018-06-15T09:04:54.283Z,36.80
2018-06-15T09:09:50.906Z,37.90
2018-06-15T09:12:19.328Z,36.00
2018-06-15T09:14:47.787Z,35.70
2018-06-15T09:19:44.348Z,34.00
2018-06-15T09:22:12.765Z,34.90
2018-06-15T09:24:41.208Z,35.30
2018-06-15T09:27:09.620Z,34.40
2018-06-15T09:29:38.055Z,33.30
2018-06-15T09:32:06.494Z,31.90
2018-06-15T09:34:34.919Z,31.50
2018-06-15T09:37:03.346Z,30.20
2018-06-15T09:39:31.919Z,30.70
2018-06-15T09:42:00.402Z,31.70
2018-06-15T09:44:28.893Z,32.50
2018-06-15T09:46:57.300Z,33.00
2018-06-15T09:49:25.691Z,32.10
2018-06-15T09:51:54.118Z,30.50
2018-06-15T09:54:22.522Z,29.40
2018-06-15T09:56:51.153Z,28.70
2018-06-15T09:59:19.550Z,27.40
2018-06-15T10:01:48.010Z,26.40
2018-06-15T10:04:19.383Z,25.80
2018-06-15T10:06:47.784Z,25.50
2018-06-15T10:09:16.931Z,24.70
2018-06-15T10:11:45.370Z,24.20
2018-06-15T10:16:42.151Z,22.90
2018-06-15T10:19:11.525Z,22.20
2018-06-15T10:21:40.108Z,22.40
2018-06-15T10:24:08.572Z,22.30
2018-06-15T10:26:36.977Z,22.40
2018-06-15T10:29:05.516Z,22.90
2018-06-15T10:34:02.068Z,23.10
2018-06-15T10:36:30.487Z,23.10
2018-06-15T10:38:58.928Z,23.50
2018-06-15T10:41:27.358Z,24.90
2018-06-15T10:43:55.874Z,25.90
2018-06-15T10:46:24.365Z,27.20
2018-06-15T10:48:52.776Z,28.40
2018-06-15T10:51:21.154Z,28.40
2018-06-15T10:53:49.589Z,28.70
2018-06-15T10:56:18.100Z,28.10
2018-06-15T10:58:46.535Z,27.70
2018-06-15T11:01:14.978Z,27.90
2018-06-15T11:03:43.421Z,29.00
2018-06-15T11:06:11.843Z,29.80
2018-06-15T11:08:40.297Z,30.90
2018-06-15T11:11:08.773Z,31.60
2018-06-15T11:13:37.218Z,33.30
2018-06-15T11:16:06.153Z,33.60
2018-06-15T11:18:34.619Z,33.80
2018-06-15T11:21:03.162Z,33.70
2018-06-15T11:23:31.617Z,33.80
2018-06-15T11:26:00.235Z,34.50
2018-06-15T11:28:28.695Z,34.40
2018-06-15T11:30:57.208Z,35.40
2018-06-15T11:33:25.626Z,34.90
2018-06-15T11:35:54.153Z,36.30
2018-06-15T11:38:22.595Z,36.80
2018-06-15T11:40:51.004Z,36.50
2018-06-15T11:43:19.415Z,36.10
2018-06-15T11:45:48.096Z,36.30
2018-06-15T11:48:16.517Z,36.40
2018-06-15T11:50:44.934Z,35.70
2018-06-15T11:53:13.576Z,36.00
2018-06-15T11:55:42.001Z,37.20
2018-06-15T11:58:10.477Z,37.40
2018-06-15T12:00:38.912Z,36.80
2018-06-15T12:03:07.338Z,37.20
2018-06-15T12:05:35.789Z,37.40
2018-06-15T12:08:04.278Z,37.70
2018-06-15T12:10:32.766Z,38.50
2018-06-15T12:13:01.192Z,38.00
2018-06-15T12:17:57.770Z,37.70
2018-06-15T12:20:26.201Z,37.10
2018-06-15T12:22:54.624Z,36.10
2018-06-15T12:25:23.175Z,36.60
2018-06-15T12:27:51.568Z,35.90
2018-06-15T12:30:20.021Z,37.10
2018-06-15T12:32:48.647Z,36.50
2018-06-15T12:35:17.010Z,36.00
2018-06-15T12:37:45.446Z,36.00
2018-06-15T12:40:13.910Z,35.90
2018-06-15T12:42:42.358Z,35.70
2018-06-15T12:45:11.002Z,36.90
2018-06-15T12:50:07.505Z,37.00
2018-06-15T12:52:35.948Z,36.80
2018-06-15T12:55:04.446Z,37.00
2018-06-15T12:57:32.874Z,36.30
2018-06-15T13:00:01.268Z,36.40
2018-06-15T13:02:29.801Z,36.40
2018-06-15T13:04:58.228Z,34.80
2018-06-15T13:07:26.629Z,34.60
2018-06-15T13:09:55.062Z,33.80
2018-06-15T13:12:23.445Z,34.30
2018-06-15T13:14:51.875Z,34.90
2018-06-15T13:17:20.361Z,35.10
2018-06-15T13:19:48.776Z,35.10
2018-06-15T13:22:17.212Z,36.40
2018-06-15T13:24:46.488Z,36.70
2018-06-15T13:27:14.926Z,37.10
2018-06-15T13:29:43.346Z,36.40
2018-06-15T13:32:11.782Z,37.60
2018-06-15T13:34:40.184Z,38.20
2018-06-15T13:37:08.729Z,37.00
2018-06-15T13:39:37.253Z,37.80
2018-06-15T13:44:33.779Z,37.90
2018-06-15T13:47:02.318Z,37.70
2018-06-15T13:49:30.754Z,37.50
2018-06-15T13:51:59.217Z,37.70
2018-06-15T13:54:27.675Z,37.90
2018-06-15T13:56:57.121Z,37.20
2018-06-15T13:59:25.538Z,37.10
2018-06-15T14:01:53.994Z,37.80
2018-06-15T14:04:22.505Z,38.30
2018-06-15T14:06:50.953Z,37.90
2018-06-15T14:09:19.353Z,37.90
2018-06-15T14:11:47.796Z,38.40
2018-06-15T14:14:16.465Z,38.60
2018-06-15T14:16:44.868Z,39.00
2018-06-15T14:19:13.550Z,38.40
2018-06-15T14:21:42.068Z,38.30
2018-06-15T14:24:10.470Z,38.70
2018-06-15T14:26:38.868Z,39.00
2018-06-15T14:29:07.408Z,39.30
2018-06-15T14:31:35.891Z,38.80
2018-06-15T14:34:04.510Z,38.10
2018-06-15T14:36:32.954Z,37.70
2018-06-15T14:39:01.456Z,38.10
2018-06-15T14:41:29.955Z,37.90
2018-06-15T14:43:58.390Z,37.90
2018-06-15T14:46:26.885Z,38.10
2018-06-15T14:48:55.344Z,37.70
2018-06-15T14:51:23.806Z,39.00
2018-06-15T14:53:52.331Z,38.60
2018-06-15T14:56:21.103Z,37.30
2018-06-15T14:58:49.537Z,37.70
2018-06-15T15:01:18.013Z,37.90
2018-06-15T15:03:47.245Z,38.20
2018-06-15T15:06:15.952Z,37.80
2018-06-15T15:08:44.611Z,37.90
2018-06-15T15:11:13.339Z,39.00
2018-06-15T15:13:41.768Z,38.90
2018-06-15T15:16:10.301Z,39.00
2018-06-15T15:18:38.793Z,39.10
2018-06-15T15:21:07.225Z,39.00
2018-06-15T15:23:35.698Z,39.40
2018-06-15T15:26:04.168Z,40.30
2018-06-15T15:28:32.777Z,40.30
2018-06-15T15:31:01.265Z,40.50
2018-06-15T15:33:29.729Z,40.80
2018-06-15T15:35:58.274Z,40.80
2018-06-15T15:38:26.689Z,40.50
2018-06-15T15:40:55.128Z,40.60
2018-06-15T15:43:24.494Z,40.60
2018-06-15T15:45:52.976Z,40.50
2018-06-15T15:48:21.489Z,40.40
2018-06-15T15:50:50.035Z,40.40
2018-06-15T15:53:19.539Z,40.60
2018-06-15T15:55:48.082Z,40.80
2018-06-15T15:58:16.593Z,41.10
2018-06-15T16:00:45.060Z,40.50
2018-06-15T16:03:13.506Z,40.80
2018-06-15T16:05:42.052Z,40.20
2018-06-15T16:08:10.508Z,40.20
2018-06-15T16:10:39.117Z,40.50
2018-06-15T16:13:07.554Z,40.40
2018-06-15T16:15:36.429Z,40.70
2018-06-15T16:18:05.301Z,40.20
2018-06-15T16:20:33.731Z,39.80
2018-06-15T16:23:02.194Z,40.20
2018-06-15T16:25:30.633Z,40.60
2018-06-15T16:28:02.124Z,40.30
2018-06-15T16:30:30.529Z,39.80
2018-06-15T16:32:58.972Z,38.70
2018-06-15T16:35:27.761Z,38.50
2018-06-15T16:37:56.210Z,38.20
2018-06-15T16:40:24.769Z,38.00
2018-06-15T16:42:53.385Z,38.20
2018-06-15T16:45:21.871Z,38.60
2018-06-15T16:47:51.202Z,38.70
2018-06-15T16:50:19.616Z,39.00
2018-06-15T16:52:48.370Z,39.60
2018-06-15T16:55:16.930Z,38.50
2018-06-15T16:57:45.526Z,38.40
2018-06-15T17:00:13.988Z,38.80
2018-06-15T17:02:42.430Z,39.30
2018-06-15T17:05:11.241Z,39.70
2018-06-15T17:07:39.671Z,40.10
2018-06-15T17:10:08.213Z,39.70
2018-06-15T17:12:36.672Z,39.50
2018-06-15T17:15:05.210Z,40.50
2018-06-15T17:17:33.648Z,40.60
2018-06-15T17:20:02.216Z,40.70
2018-06-15T17:22:32.018Z,40.60
2018-06-15T17:25:00.455Z,40.70
2018-06-15T17:27:28.932Z,40.90
2018-06-15T17:29:57.385Z,40.50
2018-06-15T17:32:25.988Z,41.30
2018-06-15T17:34:54.470Z,41.40
2018-06-15T17:37:22.947Z,41.30
2018-06-15T17:39:51.432Z,41.30
2018-06-15T17:42:19.852Z,41.50
2018-06-15T17:44:48.314Z,41.80
2018-06-15T17:49:44.904Z,41.70
2018-06-15T17:52:13.390Z,42.60
2018-06-15T17:54:41.934Z,41.90
2018-06-15T17:57:10.460Z,41.60
2018-06-15T17:59:39.033Z,41.70
2018-06-15T18:02:07.843Z,42.10
2018-06-15T18:04:37.538Z,41.70
2018-06-15T18:07:06.110Z,41.90
2018-06-15T18:09:34.824Z,42.30
2018-06-15T18:12:03.435Z,42.30
2018-06-15T18:14:31.992Z,42.60
2018-06-15T18:17:00.578Z,42.70
2018-06-15T18:19:28.995Z,42.90
2018-06-15T18:21:57.486Z,43.40
2018-06-15T18:24:25.953Z,43.60
2018-06-15T18:26:55.178Z,43.90
2018-06-15T18:29:23.889Z,44.70
2018-06-15T18:31:52.367Z,44.80
2018-06-15T18:34:20.822Z,45.40
2018-06-15T18:36:49.293Z,45.00
2018-06-15T18:39:17.773Z,45.10
2018-06-15T18:41:46.213Z,45.10
2018-06-15T18:44:15.034Z,45.50
2018-06-15T18:46:43.813Z,45.80
2018-06-15T18:49:12.482Z,45.80
2018-06-15T18:51:40.925Z,46.20
2018-06-15T18:54:09.480Z,46.30
2018-06-15T18:56:37.998Z,46.90
2018-06-15T18:59:07.122Z,46.60
2018-06-15T19:01:35.602Z,46.70
2018-06-15T19:04:04.136Z,47.00
2018-06-15T19:06:32.606Z,47.30
2018-06-15T19:09:01.065Z,47.40
2018-06-15T19:11:29.651Z,47.50
2018-06-15T19:13:58.108Z,47.60
2018-06-15T19:16:26.560Z,47.80
2018-06-15T19:18:55.057Z,47.70
2018-06-15T19:21:23.501Z,48.00
2018-06-15T19:23:52.008Z,48.00
2018-06-15T19:26:20.504Z,48.10
2018-06-15T19:28:49.040Z,48.40
2018-06-15T19:31:17.435Z,49.20
2018-06-15T19:33:45.867Z,49.20
2018-06-15T19:36:14.311Z,49.40
2018-06-15T19:38:42.734Z,49.40
2018-06-15T19:41:11.549Z,49.70
2018-06-15T19:43:40.006Z,49.90
2018-06-15T19:46:08.458Z,50.00
2018-06-15T19:48:37.066Z,50.20
2018-06-15T19:51:05.619Z,50.50
2018-06-15T19:53:34.117Z,50.50
2018-06-15T19:56:02.591Z,51.30
2018-06-15T19:58:31.011Z,51.30
2018-06-15T20:00:59.641Z,51.20
2018-06-15T20:03:28.038Z,51.50
2018-06-15T20:05:57.404Z,51.70
2018-06-15T20:08:26.148Z,51.50
2018-06-15T20:10:54.563Z,51.80
2018-06-15T20:13:22.973Z,51.80
2018-06-15T20:15:51.437Z,51.90
2018-06-15T20:18:19.858Z,52.30
2018-06-15T20:20:48.321Z,52.90
2018-06-15T20:23:17.071Z,53.30
2018-06-15T20:25:45.504Z,55.00
2018-06-15T20:28:14.053Z,55.90
2018-06-15T20:30:42.514Z,56.50
2018-06-15T20:33:10.982Z,57.00
2018-06-15T20:35:39.556Z,57.30
2018-06-15T20:38:08.024Z,58.00
2018-06-15T20:40:36.428Z,58.60
2018-06-15T20:43:05.695Z,59.20
2018-06-15T20:45:34.121Z,59.50
2018-06-15T20:48:03.145Z,59.80
2018-06-15T20:50:31.930Z,60.60
2018-06-15T20:53:00.361Z,62.10
2018-06-15T20:55:28.891Z,62.60
2018-06-15T20:57:57.324Z,63.70
2018-06-15T21:00:25.825Z,63.70
2018-06-15T21:02:54.402Z,64.60
2018-06-15T21:05:22.830Z,64.30
2018-06-15T21:10:19.399Z,64.20
2018-06-15T21:12:47.826Z,64.80
2018-06-15T21:15:16.309Z,65.00
2018-06-15T21:17:44.793Z,65.20
2018-06-15T21:20:13.476Z,65.60
2018-06-15T21:22:42.049Z,65.70
2018-06-15T21:25:10.480Z,65.80
2018-06-15T21:27:38.966Z,66.50
2018-06-15T21:30:07.432Z,66.90
2018-06-15T21:32:35.892Z,67.50
2018-06-15T21:37:32.612Z,69.00
2018-06-15T21:40:01.146Z,69.20
2018-06-15T21:42:29.584Z,69.50
2018-06-15T21:44:58.277Z,69.00
2018-06-15T21:47:26.702Z,69.60
2018-06-15T21:49:55.131Z,69.50
2018-06-15T21:52:23.600Z,69.10
2018-06-15T21:54:52.006Z,69.10
2018-06-15T21:57:20.521Z,69.70
2018-06-15T21:59:49.730Z,70.80
2018-06-15T22:02:18.159Z,71.30
2018-06-15T22:04:46.616Z,72.40
2018-06-15T22:07:15.042Z,72.40
2018-06-15T22:09:43.469Z,71.70
2018-06-15T22:12:11.925Z,72.30
2018-06-15T22:14:40.432Z,71.90
2018-06-15T22:17:08.973Z,72.30
2018-06-15T22:19:37.443Z,72.70
2018-06-15T22:22:05.923Z,72.90
2018-06-15T22:24:34.342Z,73.40
2018-06-15T22:27:02.778Z,74.20
2018-06-15T22:29:31.211Z,73.70
2018-06-15T22:31:59.704Z,73.80
2018-06-15T22:34:28.091Z,74.20
2018-06-15T22:36:56.550Z,74.80
2018-06-15T22:39:24.981Z,74.80
2018-06-15T22:41:53.406Z,75.30
2018-06-15T22:44:21.839Z,75.30
2018-06-15T22:46:50.455Z,75.20
2018-06-15T22:49:18.897Z,75.30
2018-06-15T22:51:47.379Z,75.80
2018-06-15T22:54:15.799Z,76.20
2018-06-15T22:56:44.318Z,76.80
2018-06-15T23:01:40.837Z,77.90
2018-06-15T23:04:09.286Z,78.30
2018-06-15T23:06:37.741Z,78.80
2018-06-15T23:09:08.230Z,79.20
2018-06-15T23:11:36.621Z,80.20
2018-06-15T23:14:05.304Z,81.30
2018-06-15T23:16:34.053Z,81.70
2018-06-15T23:19:02.469Z,81.80
2018-06-15T23:26:27.568Z,84.00
2018-06-15T23:28:55.957Z,83.80
2018-06-15T23:31:24.458Z,84.50
2018-06-15T23:33:52.894Z,85.40
2018-06-15T23:36:21.409Z,85.70
2018-06-15T23:38:49.925Z,85.30
2018-06-15T23:41:18.667Z,85.30
2018-06-15T23:43:47.081Z,86.20
2018-06-15T23:46:15.494Z,86.20
2018-06-15T23:48:43.947Z,86.30
2018-06-15T23:51:12.368Z,86.90
2018-06-15T23:53:40.836Z,86.40
2018-06-15T23:56:09.276Z,86.80
2018-06-15T23:58:37.912Z,87.20
